Time;durP1;ratioP1;P1;durP2;ratioP2;P2;SDS_P1;SDS_P2;PMS_P1;PMS_P2;Temp;Humidity;BMP_temperature;BMP_pressure;BME280_temperature;BME280_humidity;BME280_pressure;Samples;Min_cycle;Max_cycle;Signal;HPM_P1;HPM_P2
2022/06/12 05:37:03;;;;;;;8.93;2.23;;;18.90;70.40;;;;;;4766151;30;20088;-72
2022/06/12 05:39:29;;;;;;;9.10;2.90;;;18.90;69.90;;;;;;4776150;30;20097;-74
2022/06/12 05:41:55;;;;;;;9.27;2.55;;;19.00;69.80;;;;;;4778118;30;20093;-78
2022/06/12 05:44:23;;;;;;;15.95;3.38;;;19.00;69.80;;;;;;4756732;30;20490;-75
2022/06/12 05:46:49;;;;;;;11.88;3.28;;;19.00;70.00;;;;;;4754640;30;20063;-74
2022/06/12 05:49:17;;;;;;;12.40;2.47;;;19.00;69.80;;;;;;4753857;30;20052;-74
2022/06/12 05:51:43;;;;;;;13.45;2.90;;;19.00;70.00;;;;;;4772043;30;20044;-74
2022/06/12 05:54:10;;;;;;;18.80;4.30;;;19.10;70.10;;;;;;4772048;30;20044;-73
2022/06/12 05:56:36;;;;;;;15.93;4.07;;;19.10;70.60;;;;;;4769847;30;20051;-74
2022/06/12 05:59:02;;;;;;;19.52;4.22;;;19.20;70.80;;;;;;4767931;30;20052;-74
2022/06/12 06:01:29;;;;;;;19.30;4.70;;;19.20;70.80;;;;;;4771707;30;20047;-73
2022/06/12 06:03:55;;;;;;;12.30;3.72;;;19.20;71.10;;;;;;4755038;30;20063;-76
2022/06/12 06:06:29;;;;;;;22.73;4.93;;;19.20;71.60;;;;;;4771288;30;20068;-74
2022/06/12 06:08:55;;;;;;;16.25;4.70;;;19.30;72.20;;;;;;4758283;30;20048;-74
2022/06/12 06:11:21;;;;;;;15.88;5.05;;;19.30;72.40;;;;;;4771859;30;20047;-73
2022/06/12 06:13:48;;;;;;;17.67;3.92;;;19.40;72.60;;;;;;4756023;30;20048;-74
2022/06/12 06:16:16;;;;;;;18.63;5.20;;;19.40;72.70;;;;;;4771003;30;20528;-75
2022/06/12 06:18:42;;;;;;;17.20;4.80;;;19.50;72.70;;;;;;4771040;30;20186;-75
2022/06/12 06:21:11;;;;;;;17.00;4.70;;;19.50;72.30;;;;;;4756269;30;20056;-74
2022/06/12 06:23:41;;;;;;;16.23;4.78;;;19.50;72.30;;;;;;4774242;30;20063;-76
2022/06/12 06:26:07;;;;;;;18.85;4.47;;;19.50;72.30;;;;;;4775424;30;20078;-74
2022/06/12 06:28:33;;;;;;;28.77;4.72;;;19.50;72.00;;;;;;4775192;30;20133;-75
2022/06/12 06:30:59;;;;;;;29.58;4.65;;;19.60;71.90;;;;;;4775053;30;20048;-73
2022/06/12 06:33:25;;;;;;;23.83;4.40;;;19.60;71.60;;;;;;4759306;30;20066;-74
2022/06/12 06:35:51;;;;;;;22.25;5.10;;;19.60;71.20;;;;;;4744570;30;20468;-72
2022/06/12 06:38:17;;;;;;;20.33;3.90;;;19.60;71.00;;;;;;4775117;30;20204;-72
2022/06/12 06:40:43;;;;;;;17.13;4.38;;;19.60;71.00;;;;;;4775234;30;20082;-74
2022/06/12 06:43:10;;;;;;;15.75;4.35;;;19.70;70.90;;;;;;4774655;30;20078;-73
2022/06/12 06:48:21;;;;;;;17.52;4.90;;;19.80;70.70;;;;;;4774633;30;20063;-72
2022/06/12 06:50:48;;;;;;;15.55;4.85;;;19.70;70.50;;;;;;4774644;30;20047;-72
2022/06/12 06:53:15;;;;;;;22.42;5.30;;;19.70;70.80;;;;;;4774589;30;20135;-73
2022/06/12 06:55:41;;;;;;;20.02;5.03;;;19.70;71.10;;;;;;4774829;30;20112;-73
2022/06/12 06:58:10;;;;;;;16.63;4.25;;;19.60;70.80;;;;;;4774828;30;20138;-71
2022/06/12 07:00:38;;;;;;;19.52;4.32;;;19.60;70.40;;;;;;4774686;30;20063;-72
2022/06/12 07:03:05;;;;;;;14.13;3.88;;;19.60;70.10;;;;;;4774699;30;20127;-73
2022/06/12 07:05:32;;;;;;;16.63;3.83;;;19.60;70.20;;;;;;4774564;30;20460;-72
2022/06/12 07:08:00;;;;;;;15.40;4.18;;;19.60;70.00;;;;;;4774255;30;20387;-76
2022/06/12 07:10:31;;;;;;;15.73;4.00;;;19.60;70.10;;;;;;4774379;30;20067;-72
2022/06/12 07:12:57;;;;;;;16.48;4.38;;;19.60;70.20;;;;;;4774376;30;20043;-74
2022/06/12 07:15:24;;;;;;;15.65;4.43;;;19.60;70.40;;;;;;4773963;30;20047;-74
2022/06/12 07:17:51;;;;;;;11.82;3.58;;;19.70;70.30;;;;;;4743889;30;20070;-74
2022/06/12 07:20:19;;;;;;;12.50;4.22;;;19.70;70.20;;;;;;4774308;30;20055;-73
2022/06/12 07:22:45;;;;;;;10.88;2.90;;;19.70;70.00;;;;;;4774245;30;20052;-74
2022/06/12 07:25:12;;;;;;;10.23;3.00;;;19.70;69.80;;;;;;4758919;30;20062;-73
2022/06/12 07:27:38;;;;;;;12.52;3.00;;;19.70;69.60;;;;;;4774435;30;20090;-74
2022/06/12 07:30:07;;;;;;;11.50;2.83;;;19.80;69.60;;;;;;4774426;30;20083;-73
2022/06/12 07:32:34;;;;;;;10.48;2.65;;;19.80;69.50;;;;;;4774255;30;20070;-74
2022/06/12 07:35:00;;;;;;;12.05;3.17;;;19.80;69.50;;;;;;4773149;30;20047;-74
2022/06/12 07:37:26;;;;;;;11.48;3.60;;;19.90;69.30;;;;;;4774056;30;20191;-74
2022/06/12 07:39:52;;;;;;;9.32;2.63;;;19.90;69.10;;;;;;4758732;30;20063;-76
2022/06/12 07:42:18;;;;;;;8.13;2.25;;;19.90;69.00;;;;;;4773896;30;20048;-74
2022/06/12 07:44:44;;;;;;;11.73;2.92;;;19.90;68.90;;;;;;4773398;30;20132;-76
2022/06/12 07:47:10;;;;;;;11.05;2.47;;;19.90;68.80;;;;;;4758321;30;20059;-73
2022/06/12 07:49:36;;;;;;;13.02;2.88;;;19.90;69.00;;;;;;4773640;30;20047;-75
2022/06/12 07:52:06;;;;;;;11.32;3.33;;;20.00;69.10;;;;;;4772172;30;20056;-75
2022/06/12 07:54:33;;;;;;;17.23;3.70;;;20.00;69.10;;;;;;4742909;30;20093;-74
2022/06/12 07:56:59;;;;;;;16.58;3.15;;;20.00;69.10;;;;;;4773549;30;20059;-80
2022/06/12 07:59:25;;;;;;;9.20;2.38;;;20.00;69.10;;;;;;4773764;30;20063;-76
2022/06/12 08:01:53;;;;;;;18.02;4.25;;;20.10;69.00;;;;;;4773740;30;20051;-75
2022/06/12 08:04:22;;;;;;;14.10;3.15;;;20.10;69.00;;;;;;4773626;30;20044;-76
2022/06/12 08:06:48;;;;;;;13.18;2.97;;;20.10;69.10;;;;;;4759473;30;20063;-75
2022/06/12 08:09:15;;;;;;;9.27;2.63;;;20.10;69.20;;;;;;4772848;30;20067;-74
2022/06/12 08:11:44;;;;;;;9.65;2.38;;;20.20;68.80;;;;;;4757579;30;20056;-74
2022/06/12 08:14:11;;;;;;;9.65;2.40;;;20.20;68.80;;;;;;4772748;30;20047;-75
2022/06/12 08:16:37;;;;;;;7.90;2.58;;;20.20;68.50;;;;;;4772307;30;20122;-75
2022/06/12 08:20:24;;;;;;;10.60;2.65;;;20.20;68.90;;;;;;4773484;30;20111;-73
2022/06/12 08:21:49;;;;;;;10.95;2.47;;;20.20;68.70;;;;;;4773334;30;20051;-73
2022/06/12 08:24:15;;;;;;;7.72;2.15;;;20.30;68.60;;;;;;4756729;30;20112;-74
2022/06/12 08:26:41;;;;;;;9.02;2.60;;;20.30;68.70;;;;;;4742508;30;20044;-73
2022/06/12 08:29:09;;;;;;;6.38;2.05;;;20.30;68.90;;;;;;4773334;30;20514;-75
2022/06/12 08:31:39;;;;;;;8.55;2.13;;;20.30;68.90;;;;;;4773270;30;20067;-77
2022/06/12 08:34:09;;;;;;;9.10;2.10;;;20.30;68.70;;;;;;4772955;30;20491;-76
2022/06/12 08:36:36;;;;;;;7.80;2.40;;;20.30;68.80;;;;;;4772716;30;20064;-74
2022/06/12 08:39:04;;;;;;;12.88;2.47;;;20.40;68.50;;;;;;4772942;30;20528;-75
2022/06/12 08:41:43;;;;;;;8.02;2.03;;;20.40;68.20;;;;;;4757250;30;20048;-74
2022/06/12 08:44:47;;;;;;;11.35;1.98;;;20.40;67.90;;;;;;4757133;30;20055;-74
2022/06/12 08:47:28;;;;;;;10.30;2.30;;;20.30;68.00;;;;;;4749941;30;20066;-73
2022/06/12 08:50:04;;;;;;;8.88;2.55;;;20.30;67.10;;;;;;4757143;30;20156;-73
2022/06/12 08:52:51;;;;;;;8.68;2.35;;;20.30;67.10;;;;;;4770503;30;20056;-74
2022/06/12 08:55:21;;;;;;;5.07;1.92;;;20.30;66.90;;;;;;4756912;30;20051;-73
2022/06/12 08:58:04;;;;;;;6.53;1.95;;;20.30;67.10;;;;;;4772912;30;20043;-74
2022/06/12 09:00:32;;;;;;;5.55;1.70;;;20.40;67.20;;;;;;4756962;30;20209;-69
2022/06/12 09:02:58;;;;;;;7.47;2.38;;;20.40;66.80;;;;;;4772582;30;20060;-76
2022/06/12 09:05:51;;;;;;;6.13;1.88;;;20.40;66.50;;;;;;4772333;30;20076;-72
2022/06/12 09:08:45;;;;;;;8.77;2.13;;;20.40;66.50;;;;;;4755047;30;20120;-74
2022/06/12 09:11:17;;;;;;;;;;;20.40;66.60;;;;;;4752089;30;20064;-74
2022/06/12 09:14:03;;;;;;;7.63;1.85;;;20.40;66.90;;;;;;4772577;30;19932;-74
2022/06/12 09:16:53;;;;;;;8.40;2.42;;;20.40;67.00;;;;;;4772383;30;20047;-74
2022/06/12 09:19:19;;;;;;;5.85;1.85;;;20.40;66.60;;;;;;4771921;30;20591;-73
2022/06/12 09:22:21;;;;;;;7.18;1.88;;;20.40;66.70;;;;;;4772376;30;20116;-74
2022/06/12 09:25:12;;;;;;;10.25;2.17;;;20.40;66.80;;;;;;4757499;30;20463;-78
2022/06/12 09:27:44;;;;;;;13.38;2.13;;;20.50;67.00;;;;;;4772164;30;20059;-73
2022/06/12 09:30:25;;;;;;;13.00;2.25;;;20.50;67.20;;;;;;4755898;30;20044;-72
2022/06/12 09:33:09;;;;;;;11.25;2.60;;;20.50;67.40;;;;;;4767415;30;20047;-74
2022/06/12 09:35:52;;;;;;;12.65;2.83;;;20.50;67.40;;;;;;4752977;30;20064;-72
2022/06/12 09:38:24;;;;;;;;;;;20.50;67.10;;;;;;4747567;30;20071;-75
2022/06/12 09:41:22;;;;;;;11.75;2.70;;;20.50;67.20;;;;;;4769953;30;19925;-69
2022/06/12 09:43:57;;;;;;;10.77;2.70;;;20.50;66.60;;;;;;4715042;30;20498;-73
2022/06/12 09:46:33;;;;;;;11.93;2.67;;;20.50;66.40;;;;;;4772077;30;20345;-77
2022/06/12 09:49:28;;;;;;;10.85;2.92;;;20.60;66.70;;;;;;4771974;30;20055;-74
2022/06/12 09:52:02;;;;;;;10.82;2.45;;;20.60;67.50;;;;;;4731061;30;20147;-75
2022/06/12 09:54:46;;;;;;;9.85;1.95;;;20.60;66.70;;;;;;4739145;30;20052;-76
2022/06/12 09:57:27;;;;;;;13.55;3.20;;;20.60;66.50;;;;;;4754502;30;20064;-75
2022/06/12 10:00:22;;;;;;;11.63;2.50;;;20.60;67.00;;;;;;4754243;30;20048;-77
2022/06/12 10:03:03;;;;;;;10.10;3.08;;;20.60;66.70;;;;;;4753927;30;20143;-74
2022/06/12 10:05:35;;;;;;;13.00;2.80;;;20.60;66.50;;;;;;4754824;30;20391;-75
2022/06/12 10:08:17;;;;;;;12.60;2.15;;;20.60;66.40;;;;;;4754821;30;20048;-74
2022/06/12 10:10:52;;;;;;;11.50;3.15;;;20.60;66.10;;;;;;4754320;30;20056;-76
2022/06/12 10:13:35;;;;;;;7.57;2.20;;;20.60;66.50;;;;;;4738767;30;20067;-76
2022/06/12 10:16:08;;;;;;;7.88;2.53;;;20.60;66.30;;;;;;4753696;30;20520;-76
2022/06/12 10:18:43;;;;;;;10.50;3.30;;;20.60;66.10;;;;;;4753942;30;20504;-77
2022/06/12 10:21:15;;;;;;;9.88;2.50;;;20.60;66.10;;;;;;4753192;30;20056;-76
2022/06/12 10:23:41;;;;;;;9.48;2.90;;;20.60;66.10;;;;;;4738655;30;20060;-76
2022/06/12 10:26:26;;;;;;;7.43;2.08;;;20.60;65.80;;;;;;4757246;30;20128;-76
2022/06/12 10:29:08;;;;;;;7.72;2.28;;;20.60;66.30;;;;;;4755827;30;20063;-75
2022/06/12 10:31:48;;;;;;;9.20;2.70;;;20.60;65.80;;;;;;4771395;30;20116;-78
2022/06/12 10:34:16;;;;;;;6.75;2.70;;;20.60;65.50;;;;;;4763136;30;20148;-76
2022/06/12 10:36:43;;;;;;;8.15;2.83;;;20.60;65.40;;;;;;4755419;30;20064;-76
2022/06/12 10:39:08;;;;;;;11.25;2.92;;;20.60;65.40;;;;;;4755695;30;20487;-76
2022/06/12 10:41:51;;;;;;;6.45;2.40;;;20.60;65.30;;;;;;4756093;30;20059;-76
2022/06/12 10:44:35;;;;;;;7.15;2.33;;;20.70;65.40;;;;;;4771775;30;20142;-74
2022/06/12 10:47:31;;;;;;;8.98;2.78;;;20.60;65.30;;;;;;4771697;30;20364;-75
2022/06/12 10:50:06;;;;;;;8.65;2.67;;;20.70;65.30;;;;;;4770164;30;20483;-76
2022/06/12 10:52:33;;;;;;;8.57;2.20;;;20.60;65.40;;;;;;4756061;30;20059;-75
2022/06/12 10:54:59;;;;;;;6.28;2.50;;;20.60;65.10;;;;;;4755868;30;20052;-76
2022/06/12 10:57:44;;;;;;;9.07;2.67;;;20.60;65.10;;;;;;4771632;30;20052;-76
2022/06/12 11:00:18;;;;;;;9.30;2.65;;;20.60;65.10;;;;;;4772043;30;20047;-75
2022/06/12 11:03:02;;;;;;;6.55;2.03;;;20.70;64.90;;;;;;4755778;30;20503;-74
2022/06/12 11:06:03;;;;;;;8.98;2.97;;;20.70;64.90;;;;;;4771671;30;20426;-73
2022/06/12 11:08:51;;;;;;;7.88;2.58;;;20.60;64.70;;;;;;4742478;30;20376;-73
2022/06/12 11:11:31;;;;;;;5.82;2.20;;;20.60;64.60;;;;;;4759326;30;20055;-74
2022/06/12 11:14:05;;;;;;;8.60;2.28;;;20.60;64.60;;;;;;4774664;30;20130;-75
2022/06/12 11:17:12;;;;;;;9.82;2.53;;;20.60;64.70;;;;;;4774597;30;20052;-73
2022/06/12 11:19:40;;;;;;;11.23;2.60;;;20.60;64.80;;;;;;4774653;30;20131;-77
2022/06/12 11:22:31;;;;;;;10.05;3.33;;;20.60;65.20;;;;;;4758761;30;20056;-74
2022/06/12 11:25:10;;;;;;;14.40;3.40;;;20.60;65.20;;;;;;4756971;30;20048;-75
2022/06/12 11:27:54;;;;;;;9.15;2.70;;;20.60;65.20;;;;;;4774124;30;20105;-75
2022/06/12 11:30:43;;;;;;;10.93;2.92;;;20.60;65.20;;;;;;4774531;30;20087;-73
2022/06/12 11:33:47;;;;;;;8.77;2.67;;;20.60;65.00;;;;;;4773823;30;20052;-78
2022/06/12 11:36:31;;;;;;;8.27;2.58;;;20.60;64.80;;;;;;4774119;30;20079;-75
2022/06/12 11:39:07;;;;;;;4.65;2.08;;;20.60;63.70;;;;;;4773830;30;20456;-75
2022/06/12 11:42:08;;;;;;;6.53;2.15;;;20.50;62.30;;;;;;4773809;30;20418;-73
2022/06/12 11:45:04;;;;;;;8.52;2.55;;;20.50;61.60;;;;;;4735788;30;20091;-76
2022/06/12 11:48:04;;;;;;;7.65;2.10;;;20.40;61.50;;;;;;4773912;30;20134;-73
2022/06/12 11:51:03;;;;;;;7.47;2.10;;;20.40;62.00;;;;;;4773585;30;20059;-75
2022/06/12 11:53:44;;;;;;;8.38;2.28;;;20.40;62.00;;;;;;4757850;30;20070;-75
2022/06/12 11:56:25;;;;;;;14.35;2.50;;;20.40;62.30;;;;;;4773779;30;20052;-76
2022/06/12 11:58:56;;;;;;;8.18;2.38;;;20.40;62.50;;;;;;4773912;30;20060;-78
2022/06/12 12:01:54;;;;;;;11.63;2.30;;;20.40;62.30;;;;;;4773118;30;20513;-76
2022/06/12 12:04:39;;;;;;;6.85;2.50;;;20.50;62.50;;;;;;4766627;30;20056;-76
2022/06/12 12:07:17;;;;;;;10.50;3.30;;;20.40;62.60;;;;;;4773836;30;20146;-77
2022/06/12 12:10:28;;;;;;;9.18;2.60;;;20.50;63.10;;;;;;4773565;30;20090;-77
2022/06/12 12:13:14;;;;;;;8.98;2.33;;;20.50;63.20;;;;;;4757470;30;20060;-78
2022/06/12 12:15:50;;;;;;;9.00;2.72;;;20.50;63.20;;;;;;4772714;30;20052;-75
2022/06/12 12:18:44;;;;;;;9.98;2.10;;;20.50;63.20;;;;;;4773357;30;20140;-75
2022/06/12 12:21:13;;;;;;;;;;;20.60;63.40;;;;;;4769981;30;20091;-77
2022/06/12 12:23:45;;;;;;;13.80;2.58;;;20.60;63.60;;;;;;4772963;30;20001;-76
2022/06/12 12:26:31;;;;;;;12.00;2.45;;;20.60;63.40;;;;;;4767524;30;20048;-74
2022/06/12 12:29:00;;;;;;;7.30;2.47;;;20.60;63.50;;;;;;4772955;30;20052;-74
2022/06/12 12:31:28;;;;;;;8.88;2.95;;;20.60;63.40;;;;;;4772994;30;20052;-76
2022/06/12 12:33:59;;;;;;;8.82;2.70;;;20.60;63.30;;;;;;4772945;30;20060;-75
2022/06/12 12:42:31;;;;;;;8.57;2.58;;;20.60;63.60;;;;;;4772770;30;20134;-78
2022/06/12 12:45:23;;;;;;;10.07;2.83;;;20.60;63.70;;;;;;4742364;30;20475;-78
2022/06/12 12:48:07;;;;;;;7.07;2.35;;;20.60;63.80;;;;;;4773071;30;20459;-79
2022/06/12 12:50:47;;;;;;;10.50;2.67;;;20.60;63.90;;;;;;4772811;30;20051;-79
2022/06/12 12:53:23;;;;;;;11.38;2.42;;;20.70;64.70;;;;;;4772765;30;20040;-79
2022/06/12 12:55:59;;;;;;;12.75;3.22;;;20.70;64.10;;;;;;4757019;30;20078;-76
2022/06/12 12:58:25;;;;;;;13.40;3.05;;;20.70;64.10;;;;;;4773041;30;20405;-79
2022/06/12 13:01:20;;;;;;;14.43;3.10;;;20.70;64.10;;;;;;4756989;30;20114;-76
2022/06/12 13:03:51;;;;;;;9.07;2.90;;;20.70;64.30;;;;;;4754823;30;20472;-77
2022/06/12 13:06:35;;;;;;;9.88;2.67;;;20.70;64.00;;;;;;4739893;30;20058;-76
2022/06/12 13:09:13;;;;;;;15.98;2.85;;;20.70;64.20;;;;;;4755184;30;20078;-79
2022/06/12 13:11:45;;;;;;;13.50;3.03;;;20.80;64.30;;;;;;4759307;30;20036;-78
2022/06/12 13:14:47;;;;;;;15.05;2.85;;;20.70;64.20;;;;;;4772508;30;20356;-76
2022/06/12 13:17:22;;;;;;;15.45;3.83;;;20.70;64.20;;;;;;4742132;30;20135;-82
2022/06/12 13:20:22;;;;;;;13.93;3.22;;;20.70;64.30;;;;;;4771982;30;20130;-74
2022/06/12 13:22:57;;;;;;;21.13;4.03;;;20.70;64.60;;;;;;4772128;30;20075;-78
2022/06/12 13:25:33;;;;;;;16.48;5.00;;;20.70;65.90;;;;;;4772824;30;20063;-82
2022/06/12 13:28:07;;;;;;;19.60;5.68;;;20.70;66.00;;;;;;4752072;30;20222;-81
2022/06/12 13:30:40;;;;;;;19.60;5.30;;;20.70;66.40;;;;;;4766157;30;20467;-82
2022/06/12 13:33:07;;;;;;;13.05;5.78;;;20.70;66.90;;;;;;4758637;30;20468;-77
2022/06/12 13:35:46;;;;;;;22.90;5.88;;;20.80;66.90;;;;;;4754346;30;20056;-76
2022/06/12 13:38:25;;;;;;;18.33;4.75;;;20.80;67.00;;;;;;4754292;30;20134;-74
2022/06/12 13:41:23;;;;;;;14.68;5.18;;;20.70;67.10;;;;;;4753853;30;20372;-75
2022/06/12 13:43:49;;;;;;;12.57;4.72;;;20.70;67.20;;;;;;4769811;30;20052;-77
2022/06/12 13:46:35;;;;;;;21.05;6.00;;;20.70;67.30;;;;;;4756401;30;20074;-75
2022/06/12 13:49:12;;;;;;;14.75;4.68;;;20.80;67.20;;;;;;4756288;30;20051;-76
2022/06/12 13:51:47;;;;;;;16.00;4.53;;;20.80;68.10;;;;;;4771810;30;20060;-76
2022/06/12 13:54:16;;;;;;;11.98;4.15;;;20.80;67.20;;;;;;4754350;30;20059;-81
2022/06/12 13:56:49;;;;;;;17.00;5.20;;;20.80;66.90;;;;;;4739088;30;20125;-82
2022/06/12 13:59:21;;;;;;;13.25;4.10;;;20.80;66.90;;;;;;4753324;30;20079;-82
2022/06/12 14:01:48;;;;;;;13.20;4.23;;;20.80;67.10;;;;;;4743738;30;20432;-83
2022/06/12 14:04:32;;;;;;;19.90;4.25;;;20.80;67.00;;;;;;4742314;30;20754;-81
2022/06/12 14:07:03;;;;;;;11.73;4.32;;;20.90;67.40;;;;;;4756485;30;20363;-84
2022/06/12 14:09:38;;;;;;;18.17;4.13;;;20.90;67.50;;;;;;4741747;30;20109;-84
2022/06/12 14:12:04;;;;;;;16.70;4.35;;;20.90;67.60;;;;;;4741042;30;20058;-84
2022/06/12 14:14:40;;;;;;;14.73;4.45;;;20.90;67.50;;;;;;4756070;30;20437;-83
2022/06/12 14:17:25;;;;;;;14.30;4.07;;;20.90;68.00;;;;;;4742009;30;20051;-82
2022/06/12 14:20:04;;;;;;;24.65;4.00;;;20.90;68.90;;;;;;4741555;30;20120;-83
2022/06/12 14:22:43;;;;;;;16.77;4.03;;;20.90;68.10;;;;;;4741111;30;20086;-85
2022/06/12 14:25:33;;;;;;;13.32;3.40;;;21.00;68.50;;;;;;4741711;30;20376;-83
2022/06/12 14:28:40;;;;;;;10.07;3.40;;;21.00;68.70;;;;;;4741687;30;20075;-83
2022/06/12 14:31:45;;;;;;;16.15;3.78;;;21.00;68.40;;;;;;4728185;30;20087;-84
2022/06/12 14:34:28;;;;;;;18.63;4.47;;;21.00;67.90;;;;;;4757686;30;20472;-85
2022/06/12 14:36:57;;;;;;;12.85;3.95;;;21.00;67.60;;;;;;4771778;30;20064;-83
2022/06/12 14:39:28;;;;;;;16.05;3.80;;;21.00;67.30;;;;;;4756184;30;20052;-83
2022/06/12 14:41:59;;;;;;;11.88;3.40;;;21.00;67.00;;;;;;4741046;30;20044;-84
2022/06/12 14:44:26;;;;;;;9.10;3.45;;;21.00;66.40;;;;;;4743468;30;20059;-83
2022/06/12 14:46:53;;;;;;;15.80;3.78;;;20.90;65.80;;;;;;4744706;30;20447;-85
2022/06/12 18:35:20;;;;;;;8.98;2.72;;;20.30;57.20;;;;;;4822138;24;20460;-75
2022/06/12 18:37:46;;;;;;;10.80;2.40;;;20.30;58.10;;;;;;4757502;30;20060;-75
2022/06/12 18:40:14;;;;;;;8.20;2.60;;;20.30;57.70;;;;;;4756711;30;20057;-75
2022/06/12 18:42:40;;;;;;;10.48;2.83;;;20.30;57.70;;;;;;4757039;30;20513;-75
2022/06/12 18:45:06;;;;;;;13.10;3.28;;;20.30;57.90;;;;;;4757622;30;20068;-75
2022/06/12 18:47:33;;;;;;;10.60;2.78;;;20.30;57.50;;;;;;4757379;30;20483;-75
2022/06/12 18:49:58;;;;;;;12.15;2.95;;;20.20;57.50;;;;;;4756990;30;20060;-76
2022/06/12 18:52:25;;;;;;;8.45;2.80;;;20.20;57.50;;;;;;4757557;30;20110;-76
2022/06/12 18:54:50;;;;;;;9.27;2.53;;;20.20;57.70;;;;;;4757451;30;20091;-76
2022/06/12 18:57:17;;;;;;;6.05;2.72;;;20.20;57.90;;;;;;4757509;30;20452;-76
2022/06/12 18:59:44;;;;;;;9.13;2.70;;;20.20;57.90;;;;;;4758898;30;20051;-74
2022/06/12 19:02:11;;;;;;;9.40;3.17;;;20.20;58.00;;;;;;4763444;30;20102;-77
2022/06/12 19:04:37;;;;;;;10.95;3.33;;;20.10;58.20;;;;;;4756899;30;20063;-77
2022/06/12 19:07:05;;;;;;;9.70;3.40;;;20.10;58.40;;;;;;4758447;30;20063;-77
2022/06/12 19:09:32;;;;;;;8.48;3.00;;;20.10;59.30;;;;;;4750351;30;20495;-80
2022/06/12 19:11:58;;;;;;;9.50;3.13;;;20.10;59.00;;;;;;4741051;30;20094;-76
2022/06/12 19:14:24;;;;;;;9.38;3.22;;;20.10;59.30;;;;;;4740929;30;20040;-79
2022/06/12 19:16:52;;;;;;;7.53;2.70;;;20.10;59.20;;;;;;4756866;30;20060;-78
2022/06/12 19:19:19;;;;;;;9.85;3.38;;;20.10;59.30;;;;;;4756849;30;20161;-79
2022/06/12 19:21:46;;;;;;;5.88;3.30;;;20.10;59.40;;;;;;4758510;30;20052;-78
2022/06/12 19:24:14;;;;;;;6.38;3.13;;;20.00;59.30;;;;;;4774463;30;20047;-79
2022/06/12 19:26:41;;;;;;;7.95;2.92;;;20.00;59.30;;;;;;4774364;30;20054;-79
2022/06/12 19:29:07;;;;;;;10.30;3.53;;;20.00;59.30;;;;;;4759168;30;20426;-79
2022/06/12 19:31:33;;;;;;;6.95;2.90;;;20.00;59.40;;;;;;4745281;30;20056;-79
2022/06/12 19:33:59;;;;;;;10.80;3.88;;;20.00;59.50;;;;;;4757196;30;20456;-80
2022/06/12 19:36:26;;;;;;;9.55;4.00;;;19.90;59.50;;;;;;4755946;30;20373;-78
2022/06/12 19:38:52;;;;;;;6.78;3.08;;;19.90;59.60;;;;;;4744639;30;20151;-80
2022/06/12 19:41:21;;;;;;;5.47;2.88;;;19.90;59.70;;;;;;4727008;30;20499;-79
2022/06/12 19:43:47;;;;;;;8.30;3.30;;;19.90;59.60;;;;;;4756593;30;20141;-79
2022/06/12 19:46:12;;;;;;;8.20;3.88;;;19.90;59.60;;;;;;4731828;30;20063;-78
2022/06/12 19:48:40;;;;;;;10.55;4.22;;;19.90;59.70;;;;;;4773222;30;20062;-80
2022/06/12 19:51:06;;;;;;;7.55;3.05;;;19.80;59.70;;;;;;4764409;30;20432;-78
2022/06/12 19:53:32;;;;;;;7.20;3.25;;;19.80;59.80;;;;;;4740830;30;20076;-79
2022/06/12 19:55:58;;;;;;;9.52;3.45;;;19.80;59.90;;;;;;4740609;30;20052;-78
2022/06/12 19:58:24;;;;;;;10.18;3.08;;;19.80;59.90;;;;;;4741425;30;20131;-73
2022/06/12 20:00:50;;;;;;;7.05;3.13;;;19.80;59.80;;;;;;4743241;30;20056;-78
2022/06/12 20:03:15;;;;;;;9.35;3.10;;;19.80;59.80;;;;;;4755878;30;20131;-79
2022/06/12 20:08:55;;;;;;;6.75;2.85;;;19.70;59.90;;;;;;4756183;30;20082;-79
2022/06/12 20:11:21;;;;;;;10.02;3.45;;;19.70;60.00;;;;;;4740140;30;20071;-76
2022/06/12 20:13:47;;;;;;;6.60;2.88;;;19.70;60.70;;;;;;4755636;30;20052;-78
2022/06/12 20:16:13;;;;;;;7.45;2.83;;;19.60;60.10;;;;;;4771982;30;20127;-79
2022/06/12 20:18:38;;;;;;;8.05;3.83;;;19.70;60.30;;;;;;4762057;30;20087;-80
2022/06/12 20:21:10;;;;;;;11.75;3.90;;;19.60;60.20;;;;;;4740193;30;20066;-79
2022/06/12 20:23:40;;;;;;;11.05;4.00;;;19.60;60.30;;;;;;4740420;30;20147;-81
2022/06/12 20:26:06;;;;;;;9.15;4.20;;;19.60;60.40;;;;;;4725518;30;20059;-84
2022/06/12 20:28:33;;;;;;;8.93;3.85;;;19.60;60.40;;;;;;4728785;30;20131;-79
2022/06/12 20:31:02;;;;;;;9.27;4.13;;;19.60;60.40;;;;;;4758894;30;20422;-80
2022/06/12 20:33:32;;;;;;;9.75;3.88;;;19.60;60.40;;;;;;4755587;30;20422;-79
2022/06/12 20:36:05;;;;;;;8.65;3.45;;;19.60;60.40;;;;;;4724889;30;20056;-90
2022/06/12 20:38:30;;;;;;;10.27;3.53;;;19.60;60.20;;;;;;4754878;30;20051;-82
2022/06/12 20:40:57;;;;;;;10.23;4.30;;;19.60;60.30;;;;;;4739256;30;20048;-83
2022/06/12 20:43:26;;;;;;;7.75;3.00;;;19.50;60.20;;;;;;4740354;30;20040;-74
2022/06/12 20:45:55;;;;;;;6.78;2.90;;;19.50;60.10;;;;;;4756156;30;20040;-78
2022/06/12 20:55:59;;;;;;;8.93;3.00;;;19.40;60.50;;;;;;4709324;30;20112;-84
2022/06/12 20:58:25;;;;;;;9.10;3.33;;;19.40;60.50;;;;;;4739105;30;20078;-83
2022/06/12 21:00:51;;;;;;;10.27;3.28;;;19.40;60.50;;;;;;4739184;30;20059;-82
